createdAt,value
2022-10-20T00:01:13.591Z,6.58
2022-10-20T00:03:54.608Z,6.56
2022-10-20T00:06:41.606Z,6.55
2022-10-20T00:09:21.593Z,6.49
2022-10-20T00:12:15.598Z,6.46
2022-10-20T00:15:02.590Z,6.43
2022-10-20T00:17:42.604Z,6.42
2022-10-20T00:20:29.596Z,6.42
2022-10-20T00:23:02.647Z,6.41
2022-10-20T00:25:49.603Z,6.37
2022-10-20T00:28:22.665Z,6.33
2022-10-20T00:31:13.507Z,6.29
2022-10-20T00:33:54.633Z,6.28
2022-10-20T00:36:41.623Z,6.25
2022-10-20T00:39:21.611Z,6.19
2022-10-20T00:42:12.599Z,6.17
2022-10-20T00:44:59.595Z,6.16
2022-10-20T00:48:02.603Z,6.15
2022-10-20T00:50:52.602Z,6.12
2022-10-20T00:53:47.596Z,6.05
2022-10-20T00:56:34.627Z,6.02
2022-10-20T00:59:10.688Z,6.00
2022-10-20T01:01:57.660Z,5.98
2022-10-20T01:04:33.690Z,5.97
2022-10-20T01:07:20.611Z,5.97
2022-10-20T01:09:53.707Z,5.96
2022-10-20T01:12:55.614Z,5.91
2022-10-20T01:15:50.698Z,5.87
2022-10-20T01:18:56.627Z,5.86
2022-10-20T01:21:55.605Z,5.89
2022-10-20T01:25:08.636Z,5.89
2022-10-20T01:28:25.603Z,5.85
2022-10-20T01:31:28.635Z,5.81
2022-10-20T01:34:24.614Z,5.78
2022-10-20T01:37:07.776Z,5.78
2022-10-20T01:40:08.624Z,5.76
2022-10-20T01:42:53.642Z,5.74
2022-10-20T01:45:50.625Z,5.67
2022-10-20T01:48:40.650Z,5.62
2022-10-20T01:51:14.699Z,5.59
2022-10-20T01:54:01.630Z,5.53
2022-10-20T01:57:04.637Z,5.52
2022-10-20T02:00:00.644Z,5.53
2022-10-20T02:03:21.641Z,5.47
2022-10-20T02:06:38.661Z,5.49
2022-10-20T02:12:51.629Z,5.41
2022-10-20T02:15:30.727Z,5.35
2022-10-20T02:18:20.641Z,5.35
2022-10-20T02:20:56.726Z,5.33
2022-10-20T02:23:46.661Z,5.33
2022-10-20T02:26:23.739Z,5.30
2022-10-20T02:29:17.657Z,5.32
2022-10-20T02:31:51.733Z,5.34
2022-10-20T02:34:42.274Z,5.36
2022-10-20T02:40:03.662Z,5.40
2022-10-20T02:42:37.509Z,5.40
2022-10-20T02:45:24.638Z,5.44
2022-10-20T02:47:57.798Z,5.46
2022-10-20T02:50:44.654Z,5.47
2022-10-20T02:53:17.821Z,5.47
2022-10-20T02:56:05.656Z,5.47
2022-10-20T02:58:38.728Z,5.47
2022-10-20T03:01:25.733Z,5.41
2022-10-20T03:04:00.021Z,5.39
2022-10-20T03:06:47.668Z,5.40
2022-10-20T03:09:27.672Z,5.41
2022-10-20T03:12:21.683Z,5.38
2022-10-20T03:15:15.669Z,5.39
2022-10-20T03:18:02.675Z,5.38
2022-10-20T03:20:42.703Z,5.40
2022-10-20T03:23:29.680Z,5.37
2022-10-20T03:26:13.735Z,5.35
2022-10-20T03:29:00.669Z,5.36
2022-10-20T03:31:33.737Z,5.35
2022-10-20T03:34:20.676Z,5.33
2022-10-20T03:36:53.894Z,5.34
2022-10-20T03:39:40.687Z,5.37
2022-10-20T03:42:13.742Z,5.39
2022-10-20T03:45:00.676Z,5.38
2022-10-20T03:47:40.675Z,5.35
2022-10-20T03:50:34.673Z,5.38
2022-10-20T03:53:28.698Z,5.34
2022-10-20T03:56:18.676Z,5.31
2022-10-20T03:58:51.837Z,5.32
2022-10-20T04:01:39.738Z,5.30
2022-10-20T04:04:12.743Z,5.28
2022-10-20T04:06:59.704Z,5.22
2022-10-20T04:09:32.755Z,5.21
2022-10-20T04:12:19.706Z,5.19
2022-10-20T04:14:59.680Z,5.16
2022-10-20T04:17:53.691Z,5.09
2022-10-20T04:20:47.698Z,5.05
2022-10-20T04:23:41.690Z,5.02
2022-10-20T04:26:28.698Z,4.98
2022-10-20T04:29:09.688Z,4.97
2022-10-20T04:31:56.700Z,4.95
2022-10-20T04:34:36.708Z,4.94
2022-10-20T04:37:23.733Z,4.88
2022-10-20T04:39:57.835Z,4.90
2022-10-20T04:42:44.683Z,4.88
2022-10-20T04:45:17.813Z,4.89
2022-10-20T04:48:04.706Z,4.85
2022-10-20T04:50:37.782Z,4.84
2022-10-20T04:53:24.695Z,4.81
2022-10-20T04:56:02.783Z,4.77
2022-10-20T04:58:49.722Z,4.75
2022-10-20T05:01:30.749Z,4.75
2022-10-20T05:04:27.707Z,4.75
2022-10-20T05:07:21.720Z,4.72
2022-10-20T05:10:15.738Z,4.72
2022-10-20T05:13:02.708Z,4.73
2022-10-20T05:15:35.783Z,4.72
2022-10-20T05:18:22.721Z,4.68
2022-10-20T05:21:10.934Z,4.63
2022-10-20T05:24:02.725Z,4.56
2022-10-20T05:26:37.822Z,4.53
2022-10-20T05:29:24.737Z,4.52
2022-10-20T05:31:57.785Z,4.47
2022-10-20T05:34:45.718Z,4.46
2022-10-20T05:37:18.845Z,4.43
2022-10-20T05:40:13.723Z,4.38
2022-10-20T05:43:07.730Z,4.36
2022-10-20T05:46:07.717Z,4.30
2022-10-20T05:48:54.713Z,4.29
2022-10-20T05:51:36.727Z,4.26
2022-10-20T05:54:30.711Z,4.26
2022-10-20T05:57:17.748Z,4.22
2022-10-20T05:59:50.805Z,4.23
2022-10-20T06:02:38.024Z,4.24
2022-10-20T06:05:18.745Z,4.27
2022-10-20T06:08:05.710Z,4.33
2022-10-20T06:10:45.727Z,4.36
2022-10-20T06:13:39.715Z,4.46
2022-10-20T06:16:36.730Z,4.57
2022-10-20T06:19:23.732Z,4.63
2022-10-20T06:22:06.746Z,4.65
2022-10-20T06:24:53.754Z,4.62
2022-10-20T06:27:26.796Z,4.65
2022-10-20T06:30:16.735Z,4.69
2022-10-20T06:32:56.734Z,4.70
2022-10-20T06:35:50.743Z,4.77
2022-10-20T06:38:37.752Z,4.82
2022-10-20T06:41:12.860Z,4.84
2022-10-20T06:44:04.739Z,4.86
2022-10-20T06:46:47.749Z,4.92
2022-10-20T06:49:41.761Z,4.92
2022-10-20T06:52:28.737Z,4.94
2022-10-20T06:55:01.824Z,4.94
2022-10-20T06:57:48.739Z,4.98
2022-10-20T07:00:21.847Z,5.05
2022-10-20T07:03:08.748Z,5.06
2022-10-20T07:05:41.811Z,5.10
2022-10-20T07:08:29.785Z,5.18
2022-10-20T07:11:13.839Z,5.21
2022-10-20T07:14:00.779Z,5.26
2022-10-20T07:16:43.765Z,5.29
2022-10-20T07:19:30.741Z,5.30
2022-10-20T07:22:10.791Z,5.34
2022-10-20T07:24:57.771Z,5.38
2022-10-20T07:27:37.778Z,5.40
2022-10-20T07:30:24.774Z,5.35
2022-10-20T07:33:04.743Z,5.35
2022-10-20T07:35:58.778Z,5.30
2022-10-20T07:38:45.768Z,5.29
2022-10-20T07:41:18.859Z,5.28
2022-10-20T07:44:05.789Z,5.33
2022-10-20T07:46:38.868Z,5.38
2022-10-20T07:49:43.377Z,5.46
2022-10-20T07:52:25.760Z,5.51
2022-10-20T07:55:37.663Z,5.54
2022-10-20T07:58:32.762Z,5.59
2022-10-20T08:01:26.838Z,5.63
2022-10-20T08:04:13.785Z,5.63
2022-10-20T08:06:47.296Z,5.62
2022-10-20T08:09:34.002Z,5.68
2022-10-20T08:12:13.802Z,5.72
2022-10-20T08:15:00.803Z,5.74
2022-10-20T08:17:33.881Z,5.75
2022-10-20T08:20:29.558Z,5.74
2022-10-20T08:23:09.789Z,5.77
2022-10-20T08:26:02.803Z,5.79
2022-10-20T08:28:42.780Z,5.90
2022-10-20T08:31:29.783Z,5.97
2022-10-20T08:34:02.908Z,6.03
2022-10-20T08:36:49.779Z,6.07
2022-10-20T08:39:29.806Z,6.18
2022-10-20T08:42:17.779Z,6.28
2022-10-20T08:44:59.816Z,6.32
2022-10-20T08:47:53.783Z,6.42
2022-10-20T08:50:52.775Z,6.54
2022-10-20T08:53:28.906Z,6.62
2022-10-20T08:56:19.789Z,6.67
2022-10-20T08:58:52.944Z,6.75
2022-10-20T09:01:42.874Z,6.84
2022-10-20T09:04:26.900Z,6.85
2022-10-20T09:07:43.805Z,6.90
2022-10-20T09:10:22.891Z,6.98
2022-10-20T09:13:17.813Z,7.07
2022-10-20T09:15:57.802Z,7.11
2022-10-20T09:18:51.814Z,7.17
2022-10-20T09:21:41.804Z,7.19
2022-10-20T09:24:21.843Z,7.24
2022-10-20T09:27:42.807Z,7.41
2022-10-20T09:30:42.818Z,7.48
2022-10-20T09:33:47.808Z,7.49
2022-10-20T09:36:39.791Z,7.49
2022-10-20T09:39:19.809Z,7.48
2022-10-20T09:42:26.809Z,7.53
2022-10-20T09:45:23.882Z,7.50
2022-10-20T09:48:00.681Z,7.44
2022-10-20T09:50:52.838Z,7.39
2022-10-20T09:53:28.990Z,7.37
2022-10-20T09:56:15.820Z,7.34
2022-10-20T09:58:52.897Z,7.33
2022-10-20T10:01:39.809Z,7.30
2022-10-20T10:04:41.934Z,7.31
2022-10-20T10:07:28.821Z,7.34
2022-10-20T10:10:10.917Z,7.33
2022-10-20T10:13:07.846Z,7.33
2022-10-20T10:15:45.899Z,7.39
2022-10-20T10:18:32.838Z,7.41
2022-10-20T10:21:09.937Z,7.43
2022-10-20T10:24:07.846Z,7.41
2022-10-20T10:26:49.920Z,7.44
2022-10-20T10:29:47.844Z,7.42
2022-10-20T10:32:42.871Z,7.41
2022-10-20T10:35:39.853Z,7.43
2022-10-20T10:38:15.930Z,7.39
2022-10-20T10:41:31.820Z,7.41
2022-10-20T10:44:51.905Z,7.41
2022-10-20T10:48:08.843Z,7.40
2022-10-20T10:51:03.853Z,7.44
2022-10-20T10:53:49.835Z,7.44
2022-10-20T10:56:39.857Z,7.45
2022-10-20T10:59:43.850Z,7.48
2022-10-20T11:02:37.091Z,7.47
2022-10-20T11:05:19.983Z,7.49
2022-10-20T11:08:23.874Z,7.48
2022-10-20T11:11:15.936Z,7.49
2022-10-20T11:14:02.854Z,7.47
2022-10-20T11:16:43.944Z,7.48
2022-10-20T11:19:52.859Z,7.48
2022-10-20T11:23:03.949Z,7.49
2022-10-20T11:26:01.875Z,7.51
2022-10-20T11:29:04.950Z,7.54
2022-10-20T11:32:13.858Z,7.53
2022-10-20T11:35:07.916Z,7.56
2022-10-20T11:38:11.937Z,7.57
2022-10-20T11:41:07.876Z,7.58
2022-10-20T11:43:49.932Z,7.59
2022-10-20T11:46:42.858Z,7.62
2022-10-20T11:49:15.942Z,7.65
2022-10-20T11:52:27.860Z,7.64
2022-10-20T11:55:27.951Z,7.66
2022-10-20T11:58:34.878Z,7.65
2022-10-20T12:01:17.890Z,7.66
2022-10-20T12:04:23.876Z,7.67
2022-10-20T12:08:17.433Z,7.68
2022-10-20T12:11:30.879Z,7.70
2022-10-20T12:14:38.878Z,7.71
2022-10-20T12:17:37.882Z,7.72
2022-10-20T12:20:35.884Z,7.74
2022-10-20T12:23:50.889Z,7.76
2022-10-20T12:26:44.759Z,7.77
2022-10-20T12:29:44.891Z,7.80
2022-10-20T12:32:49.902Z,7.79
2022-10-20T12:35:57.891Z,7.81
2022-10-20T12:38:31.041Z,7.81
2022-10-20T12:41:30.896Z,7.81
2022-10-20T12:44:10.957Z,7.82
2022-10-20T12:47:12.911Z,7.85
2022-10-20T12:49:57.985Z,7.85
2022-10-20T12:52:46.899Z,7.88
2022-10-20T12:55:41.800Z,7.89
2022-10-20T12:58:28.900Z,7.89
2022-10-20T13:01:02.217Z,7.90
2022-10-20T13:03:50.907Z,7.89
2022-10-20T13:06:37.909Z,7.91
2022-10-20T13:09:27.954Z,7.91
2022-10-20T13:12:06.015Z,7.91
2022-10-20T13:15:00.905Z,7.93
2022-10-20T13:17:49.906Z,7.95
2022-10-20T13:21:30.922Z,7.99
2022-10-20T13:24:44.807Z,8.00
2022-10-20T13:27:39.272Z,8.00
2022-10-20T13:30:34.921Z,7.98
2022-10-20T13:34:10.927Z,8.01
2022-10-20T13:37:06.941Z,8.03
2022-10-20T13:40:18.909Z,8.06
2022-10-20T13:43:26.911Z,8.07
2022-10-20T13:46:15.068Z,8.07
2022-10-20T13:49:13.933Z,8.08
2022-10-20T13:51:54.005Z,8.08
2022-10-20T13:54:43.952Z,8.09
2022-10-20T13:57:39.013Z,8.10
2022-10-20T14:00:38.973Z,8.09
2022-10-20T14:03:31.939Z,8.09
2022-10-20T14:06:33.940Z,8.10
2022-10-20T14:09:24.054Z,8.07
2022-10-20T14:12:13.943Z,8.08
2022-10-20T14:15:01.971Z,8.05
2022-10-20T14:17:55.960Z,8.02
2022-10-20T14:20:47.957Z,8.02
2022-10-20T14:23:21.019Z,8.04
2022-10-20T14:26:09.951Z,8.07
2022-10-20T14:28:44.015Z,8.03
2022-10-20T14:31:31.979Z,8.01
2022-10-20T14:34:05.000Z,7.98
2022-10-20T14:36:51.949Z,7.90
2022-10-20T14:39:36.033Z,7.86
2022-10-20T14:42:29.946Z,7.83
2022-10-20T14:45:11.973Z,7.83
2022-10-20T14:47:59.937Z,7.86
2022-10-20T14:50:49.978Z,7.90
2022-10-20T14:53:47.946Z,7.92
2022-10-20T14:56:41.947Z,7.94
2022-10-20T14:59:42.949Z,7.98
2022-10-20T15:02:33.966Z,7.99
2022-10-20T15:05:35.967Z,7.98
2022-10-20T15:08:37.994Z,7.97
2022-10-20T15:11:38.947Z,7.93
2022-10-20T15:14:32.952Z,7.86
2022-10-20T15:17:43.990Z,7.76
2022-10-20T15:20:37.457Z,7.65
2022-10-20T15:23:32.968Z,7.57
2022-10-20T15:26:12.042Z,7.48
2022-10-20T15:29:05.967Z,7.38
2022-10-20T15:31:52.982Z,7.30
2022-10-20T15:34:26.605Z,7.22
2022-10-20T15:37:12.981Z,7.17
2022-10-20T15:39:46.098Z,7.09
2022-10-20T15:42:32.967Z,7.00
2022-10-20T15:45:06.044Z,6.91
2022-10-20T15:47:52.982Z,6.84
2022-10-20T15:50:26.046Z,6.77
2022-10-20T15:53:12.996Z,6.71
2022-10-20T15:55:49.052Z,6.64
2022-10-20T15:58:39.635Z,6.59
2022-10-20T16:01:13.164Z,6.57
2022-10-20T16:03:59.968Z,6.50
2022-10-20T16:06:33.045Z,6.44
2022-10-20T16:09:20.034Z,6.36
2022-10-20T16:12:00.992Z,6.31
2022-10-20T16:14:54.985Z,6.22
2022-10-20T16:20:40.988Z,6.05
2022-10-20T16:23:20.982Z,5.96
2022-10-20T16:26:17.980Z,5.91
2022-10-20T16:29:13.009Z,5.84
2022-10-20T16:32:07.012Z,5.77
2022-10-20T16:34:53.989Z,5.69
2022-10-20T16:37:27.335Z,5.63
2022-10-20T16:40:14.014Z,5.61
2022-10-20T16:42:53.996Z,5.60
2022-10-20T16:45:40.981Z,5.56
2022-10-20T16:48:14.069Z,5.53
2022-10-20T16:51:00.994Z,5.47
2022-10-20T16:53:41.007Z,5.39
2022-10-20T16:56:36.006Z,5.38
2022-10-20T16:59:22.996Z,5.33
2022-10-20T17:01:56.094Z,5.29
2022-10-20T17:04:42.989Z,5.25
2022-10-20T17:07:16.215Z,5.19
2022-10-20T17:10:03.017Z,5.14
2022-10-20T17:12:43.085Z,5.12
2022-10-20T17:15:37.010Z,5.09
2022-10-20T17:18:31.001Z,5.08
2022-10-20T17:21:19.008Z,5.03
2022-10-20T17:23:59.996Z,5.00
2022-10-20T17:26:54.030Z,4.96
2022-10-20T17:29:47.995Z,4.89
2022-10-20T17:32:35.403Z,4.83
2022-10-20T17:35:09.111Z,4.78
2022-10-20T17:37:56.009Z,4.75
2022-10-20T17:40:36.032Z,4.72
2022-10-20T17:43:31.020Z,4.67
2022-10-20T17:46:20.033Z,4.60
2022-10-20T17:48:54.097Z,4.55
2022-10-20T17:51:41.049Z,4.47
2022-10-20T17:54:17.154Z,4.40
2022-10-20T17:57:04.013Z,4.38
2022-10-20T17:59:47.327Z,4.33
2022-10-20T18:02:40.225Z,4.25
2022-10-20T18:05:21.048Z,4.15
2022-10-20T18:08:15.046Z,4.04
2022-10-20T18:11:02.027Z,4.02
2022-10-20T18:13:35.189Z,4.00
2022-10-20T18:16:24.024Z,3.93
2022-10-20T18:21:49.035Z,3.88
2022-10-20T18:24:30.051Z,3.83
2022-10-20T18:27:24.025Z,3.75
2022-10-20T18:30:18.026Z,3.70
2022-10-20T18:33:05.037Z,3.71
2022-10-20T18:35:38.121Z,3.69
2022-10-20T18:38:25.039Z,3.67
2022-10-20T18:40:58.194Z,3.64
2022-10-20T18:43:45.049Z,3.56
2022-10-20T18:46:26.041Z,3.53
2022-10-20T18:49:21.023Z,3.50
2022-10-20T18:52:09.049Z,3.44
2022-10-20T18:54:42.131Z,3.38
2022-10-20T18:57:29.053Z,3.34
2022-10-20T19:00:05.080Z,3.31
2022-10-20T19:02:59.343Z,3.29
2022-10-20T19:05:37.827Z,3.25
2022-10-20T19:08:24.060Z,3.23
2022-10-20T19:10:57.148Z,3.20
2022-10-20T19:13:44.063Z,3.22
2022-10-20T19:16:23.132Z,3.23
2022-10-20T19:19:13.059Z,3.22
2022-10-20T19:21:46.146Z,3.13
2022-10-20T19:24:33.054Z,3.07
2022-10-20T19:27:28.274Z,3.03
2022-10-20T19:33:14.058Z,2.97
2022-10-20T19:35:54.082Z,2.99
2022-10-20T19:38:48.079Z,3.00
2022-10-20T19:41:35.054Z,2.97
2022-10-20T19:44:08.204Z,2.94
2022-10-20T19:46:58.070Z,2.88
2022-10-20T19:49:39.091Z,2.84
2022-10-20T19:52:26.109Z,2.82
2022-10-20T19:55:07.071Z,2.78
2022-10-20T19:58:01.110Z,2.74
2022-10-20T20:00:53.125Z,2.69
2022-10-20T20:03:37.088Z,2.70
2022-10-20T20:06:35.072Z,2.70
2022-10-20T20:09:25.075Z,2.61
2022-10-20T20:11:58.249Z,2.54
2022-10-20T20:14:45.069Z,2.52
2022-10-20T20:17:25.088Z,2.56
2022-10-20T20:20:19.068Z,2.60
2022-10-20T20:23:06.085Z,2.60
2022-10-20T20:25:51.127Z,2.55
2022-10-20T20:28:45.079Z,2.48
2022-10-20T20:31:40.084Z,2.46
2022-10-20T20:34:27.142Z,2.41
2022-10-20T20:37:00.193Z,2.37
2022-10-20T20:39:47.081Z,2.34
2022-10-20T20:42:20.161Z,2.29
2022-10-20T20:45:08.072Z,2.21
2022-10-20T20:47:41.165Z,2.18
2022-10-20T20:50:28.095Z,2.13
2022-10-20T20:53:01.148Z,2.07
2022-10-20T20:55:48.090Z,2.08
2022-10-20T20:58:28.097Z,2.12
2022-10-20T21:01:26.126Z,2.13
2022-10-20T21:04:21.127Z,2.11
2022-10-20T21:07:15.099Z,2.07
2022-10-20T21:10:02.104Z,2.07
2022-10-20T21:12:35.501Z,2.03
2022-10-20T21:15:22.091Z,2.03
2022-10-20T21:18:02.090Z,2.03
2022-10-20T21:20:56.104Z,2.00
2022-10-20T21:23:50.083Z,1.99
2022-10-20T21:26:44.117Z,1.93
2022-10-20T21:29:31.110Z,1.87
2022-10-20T21:32:04.160Z,1.85
2022-10-20T21:34:51.099Z,1.83
2022-10-20T21:37:31.087Z,1.82
2022-10-20T21:40:18.112Z,1.77
2022-10-20T21:42:58.100Z,1.72
2022-10-20T21:45:52.101Z,1.75
2022-10-20T21:48:39.139Z,1.76
2022-10-20T21:51:16.177Z,1.73
2022-10-20T21:54:08.176Z,1.72
2022-10-20T21:56:50.132Z,1.72
2022-10-20T21:59:38.116Z,1.67
2022-10-20T22:02:13.880Z,1.66
2022-10-20T22:05:00.109Z,1.64
2022-10-20T22:07:35.414Z,1.60
2022-10-20T22:10:22.135Z,1.60
2022-10-20T22:12:55.200Z,1.58
2022-10-20T22:15:46.109Z,1.59
2022-10-20T22:18:26.119Z,1.57
2022-10-20T22:21:15.112Z,1.53
2022-10-20T22:23:57.105Z,1.53
2022-10-20T22:26:44.120Z,1.51
2022-10-20T22:29:18.351Z,1.47
2022-10-20T22:32:05.127Z,1.44
2022-10-20T22:34:45.137Z,1.45
2022-10-20T22:37:32.109Z,1.40
2022-10-20T22:40:12.139Z,1.40
2022-10-20T22:42:59.128Z,1.39
2022-10-20T22:45:32.213Z,1.40
2022-10-20T22:48:19.126Z,1.42
2022-10-20T22:50:59.127Z,1.43
2022-10-20T22:53:53.137Z,1.46
2022-10-20T22:56:47.126Z,1.46
2022-10-20T22:59:34.143Z,1.39
2022-10-20T23:02:07.207Z,1.34
2022-10-20T23:04:54.146Z,1.34
2022-10-20T23:07:27.241Z,1.35
2022-10-20T23:10:14.116Z,1.36
2022-10-20T23:12:47.240Z,1.35
2022-10-20T23:15:34.133Z,1.30
2022-10-20T23:18:14.168Z,1.30
2022-10-20T23:21:01.151Z,1.28
2022-10-20T23:23:41.144Z,1.22
2022-10-20T23:26:35.131Z,1.19
2022-10-20T23:29:29.132Z,1.16
2022-10-20T23:32:16.155Z,1.20
2022-10-20T23:34:49.269Z,1.23
2022-10-20T23:37:36.383Z,1.26
2022-10-20T23:40:17.157Z,1.30
2022-10-20T23:43:11.152Z,1.29
2022-10-20T23:45:58.145Z,1.29
2022-10-20T23:48:38.126Z,1.27
2022-10-20T23:51:25.158Z,1.28
2022-10-20T23:53:58.212Z,1.24
2022-10-20T23:56:45.158Z,1.24
2022-10-20T23:59:18.221Z,1.20
